Time;durP1;ratioP1;P1;durP2;ratioP2;P2;SDS_P1;SDS_P2;PMS_P1;PMS_P2;Temp;Humidity;BMP_temperature;BMP_pressure;BME280_temperature;BME280_humidity;BME280_pressure;Samples;Min_cycle;Max_cycle;Signal;HPM_P1;HPM_P2
2022/05/13 00:00:23;;;;;;;11.87;3.43;;;18.10;99.90;;;;;;5010278;28;20034;-77
2022/05/13 00:02:49;;;;;;;12.18;3.72;;;18.10;99.90;;;;;;5010051;28;20017;-75
2022/05/13 00:05:15;;;;;;;15.80;3.80;;;17.90;99.90;;;;;;5010782;28;20418;-75
2022/05/13 00:07:41;;;;;;;10.00;3.57;;;17.80;99.90;;;;;;5011304;28;20026;-73
2022/05/13 00:10:07;;;;;;;8.53;3.40;;;17.80;99.90;;;;;;5011084;28;20037;-74
2022/05/13 00:12:40;;;;;;;9.93;4.00;;;17.80;99.90;;;;;;5010921;28;20117;-76
2022/05/13 00:15:19;;;;;;;11.63;3.70;;;17.70;99.90;;;;;;5011120;28;20018;-76
2022/05/13 00:17:47;;;;;;;12.52;3.22;;;17.80;99.90;;;;;;5010980;28;20018;-76
2022/05/13 00:20:16;;;;;;;14.95;3.70;;;17.80;99.90;;;;;;5010964;28;20038;-76
2022/05/13 00:22:50;;;;;;;8.48;3.20;;;17.80;99.90;;;;;;5010833;28;20022;-75
2022/05/13 00:25:19;;;;;;;8.65;3.22;;;17.80;99.90;;;;;;5010842;28;20026;-76
2022/05/13 00:27:45;;;;;;;11.45;3.15;;;17.70;99.90;;;;;;5010697;28;20030;-76
2022/05/13 00:30:12;;;;;;;6.68;2.88;;;17.60;99.90;;;;;;5011026;28;20112;-76
2022/05/13 00:32:40;;;;;;;10.35;3.80;;;17.70;99.90;;;;;;5011072;28;20021;-76
2022/05/13 00:35:07;;;;;;;8.63;3.03;;;17.70;99.90;;;;;;5010686;28;20026;-76
2022/05/13 00:37:34;;;;;;;11.55;3.85;;;17.80;99.90;;;;;;5010434;28;20185;-76
2022/05/13 00:40:02;;;;;;;8.15;3.33;;;17.80;99.90;;;;;;5010603;28;20049;-76
2022/05/13 00:42:28;;;;;;;10.90;3.30;;;17.90;99.90;;;;;;5010551;28;20022;-75
2022/05/13 00:44:55;;;;;;;8.90;3.10;;;17.90;99.90;;;;;;5008995;28;20026;-76
2022/05/13 00:47:22;;;;;;;12.18;3.22;;;17.90;99.90;;;;;;5010620;28;20072;-76
2022/05/13 00:49:48;;;;;;;10.52;3.00;;;17.90;99.90;;;;;;5010581;28;20022;-76
2022/05/13 00:52:15;;;;;;;10.40;2.90;;;17.90;99.90;;;;;;5010725;28;20149;-76
2022/05/13 00:54:49;;;;;;;11.18;3.25;;;17.90;99.90;;;;;;5010370;28;20110;-75
2022/05/13 00:57:15;;;;;;;9.25;3.42;;;17.90;99.90;;;;;;5010788;28;20022;-75
2022/05/13 00:59:44;;;;;;;9.27;3.35;;;17.90;99.90;;;;;;5010615;28;20457;-75
2022/05/13 01:02:11;;;;;;;10.80;3.38;;;17.90;99.90;;;;;;5010403;28;20041;-76
2022/05/13 01:04:38;;;;;;;9.93;3.83;;;17.80;99.90;;;;;;5011151;28;20032;-76
2022/05/13 01:07:14;;;;;;;10.88;3.40;;;17.80;99.90;;;;;;5010283;28;20030;-75
2022/05/13 01:09:48;;;;;;;9.77;3.47;;;17.70;99.90;;;;;;5010353;28;20044;-76
2022/05/13 01:12:18;;;;;;;12.02;3.40;;;17.60;99.90;;;;;;5010501;28;20030;-76
2022/05/13 01:18:07;;;;;;;12.40;3.65;;;17.60;99.90;;;;;;5030159;28;20114;-76
2022/05/13 01:20:42;;;;;;;;;;;17.60;99.90;;;;;;5030095;28;20042;-76
2022/05/13 01:23:15;;;;;;;7.07;3.13;;;17.60;99.90;;;;;;5030008;28;19905;-76
2022/05/13 01:25:49;;;;;;;8.63;3.25;;;17.50;99.90;;;;;;5029887;28;20032;-76
2022/05/13 01:28:49;;;;;;;10.20;3.53;;;17.40;99.90;;;;;;5029823;28;20041;-76
2022/05/13 01:31:24;;;;;;;16.75;4.07;;;17.50;99.90;;;;;;5029898;28;20022;-76
2022/05/13 01:33:51;;;;;;;9.38;3.50;;;17.50;99.90;;;;;;5029837;28;20075;-75
2022/05/13 01:36:17;;;;;;;9.85;3.00;;;17.60;99.90;;;;;;5029519;28;20135;-76
2022/05/13 01:38:43;;;;;;;8.25;3.00;;;17.70;99.90;;;;;;5029870;28;20250;-76
2022/05/13 01:41:12;;;;;;;10.50;2.90;;;17.70;99.90;;;;;;5015277;28;20221;-77
2022/05/13 01:43:39;;;;;;;11.77;3.63;;;17.70;99.90;;;;;;5010071;28;20022;-76
2022/05/13 01:46:05;;;;;;;10.20;3.55;;;17.70;99.90;;;;;;5009860;28;20057;-75
2022/05/13 01:48:32;;;;;;;11.93;3.50;;;17.70;99.90;;;;;;5010243;28;20018;-76
2022/05/13 01:50:58;;;;;;;10.35;3.38;;;17.70;99.90;;;;;;5009836;28;20026;-76
2022/05/13 01:53:24;;;;;;;12.57;3.15;;;17.70;99.90;;;;;;5010244;28;20080;-76
2022/05/13 01:55:50;;;;;;;9.97;4.00;;;17.70;99.90;;;;;;5010083;28;20041;-75
2022/05/13 01:58:19;;;;;;;12.27;3.63;;;17.60;99.90;;;;;;5010209;28;20092;-76
2022/05/13 02:00:46;;;;;;;7.05;2.85;;;17.60;99.90;;;;;;5009929;28;20324;-76
2022/05/13 02:05:57;;;;;;;12.05;3.10;;;17.50;99.90;;;;;;5024567;28;20393;-76
2022/05/13 02:08:25;;;;;;;8.50;2.83;;;17.50;99.90;;;;;;5029523;28;20083;-76
2022/05/13 02:10:51;;;;;;;5.97;2.85;;;17.50;99.90;;;;;;5029435;28;20102;-76
2022/05/13 02:13:17;;;;;;;5.87;2.07;;;17.60;99.90;;;;;;5029566;28;20033;-75
2022/05/13 02:15:43;;;;;;;7.70;2.88;;;17.60;99.80;;;;;;5030606;28;20076;-76
2022/05/13 02:18:10;;;;;;;9.25;2.72;;;17.50;99.50;;;;;;5033304;28;20041;-76
2022/05/13 02:20:37;;;;;;;6.60;2.90;;;17.50;99.50;;;;;;5031441;28;20541;-76
2022/05/13 02:23:04;;;;;;;13.07;3.13;;;17.50;99.30;;;;;;5032893;28;20026;-74
2022/05/13 02:25:30;;;;;;;5.45;2.58;;;17.60;99.00;;;;;;5032884;28;20061;-76
2022/05/13 02:27:57;;;;;;;7.85;2.50;;;17.50;98.80;;;;;;5033024;28;20430;-76
2022/05/13 02:30:25;;;;;;;7.03;2.53;;;17.50;98.80;;;;;;5032811;28;20450;-76
2022/05/13 02:32:51;;;;;;;11.38;3.25;;;17.60;98.70;;;;;;5032747;28;20071;-76
2022/05/13 02:35:17;;;;;;;10.27;2.35;;;17.60;98.70;;;;;;5032970;28;20505;-76
2022/05/13 02:37:43;;;;;;;8.90;2.75;;;17.60;98.50;;;;;;5032415;28;20045;-75
2022/05/13 02:40:10;;;;;;;10.43;3.07;;;17.60;98.40;;;;;;5032524;28;20474;-76
2022/05/13 02:42:36;;;;;;;;;;;17.60;98.30;;;;;;5022667;28;20482;-76
2022/05/13 02:45:02;;;;;;;8.17;2.53;;;17.60;98.30;;;;;;5013025;28;19984;-75
2022/05/13 02:47:28;;;;;;;12.18;2.92;;;17.60;98.20;;;;;;5012998;28;20686;-76
2022/05/13 02:52:50;;;;;;;8.32;2.83;;;17.50;98.60;;;;;;5012844;28;20040;-76
2022/05/13 02:55:18;;;;;;;11.85;3.00;;;17.50;98.50;;;;;;5012670;28;20549;-76
2022/05/13 02:57:45;;;;;;;11.07;3.42;;;17.50;98.60;;;;;;5012900;28;20026;-76
2022/05/13 03:00:11;;;;;;;10.88;2.72;;;17.50;98.70;;;;;;5013027;28;20092;-76
2022/05/13 03:02:38;;;;;;;8.68;2.72;;;17.40;98.70;;;;;;5013043;28;20097;-76
2022/05/13 03:05:05;;;;;;;14.38;2.92;;;17.40;98.60;;;;;;5012901;28;20509;-76
2022/05/13 03:07:31;;;;;;;10.20;2.40;;;17.40;98.70;;;;;;5013207;28;20022;-76
2022/05/13 03:09:57;;;;;;;8.73;2.88;;;17.50;98.20;;;;;;5013281;28;20492;-76
2022/05/13 03:12:23;;;;;;;12.07;2.80;;;17.50;98.20;;;;;;5011423;28;20144;-76
2022/05/13 03:14:49;;;;;;;15.63;3.03;;;17.50;98.30;;;;;;5013248;28;20026;-76
2022/05/13 03:17:16;;;;;;;11.30;2.72;;;17.40;98.20;;;;;;5013121;28;20025;-76
2022/05/13 03:19:42;;;;;;;9.15;2.53;;;17.40;98.10;;;;;;5013040;28;20063;-76
2022/05/13 03:22:45;;;;;;;12.87;3.10;;;17.40;98.00;;;;;;5011675;28;20331;-76
2022/05/13 03:25:11;;;;;;;7.47;2.58;;;17.40;98.20;;;;;;5014058;28;20500;-76
2022/05/13 03:27:38;;;;;;;9.63;2.75;;;17.40;98.00;;;;;;5013052;28;20018;-77
2022/05/13 03:30:05;;;;;;;9.85;2.92;;;17.40;98.00;;;;;;5014269;28;20088;-76
2022/05/13 03:32:32;;;;;;;9.90;2.70;;;17.40;97.90;;;;;;5013814;28;20063;-76
2022/05/13 03:34:58;;;;;;;10.45;2.85;;;17.40;97.80;;;;;;5013621;28;20108;-76
2022/05/13 03:37:24;;;;;;;9.57;2.40;;;17.40;97.70;;;;;;5013615;28;20077;-76
2022/05/13 03:39:50;;;;;;;13.10;3.20;;;17.50;97.70;;;;;;5013514;28;20065;-77
2022/05/13 03:42:16;;;;;;;11.10;3.10;;;17.50;97.50;;;;;;5013646;28;20300;-76
2022/05/13 03:44:42;;;;;;;15.10;2.83;;;17.50;97.60;;;;;;5013619;28;20473;-77
2022/05/13 03:47:08;;;;;;;;;;;17.50;97.30;;;;;;5014318;28;20057;-76
2022/05/13 03:49:34;;;;;;;9.95;2.58;;;17.50;97.40;;;;;;5013528;28;19952;-76
2022/05/13 03:52:00;;;;;;;9.67;2.93;;;17.50;97.30;;;;;;5013465;28;20545;-76
2022/05/13 03:54:27;;;;;;;9.53;3.00;;;17.60;97.30;;;;;;5013442;28;20279;-77
2022/05/13 03:56:53;;;;;;;12.38;2.90;;;17.50;97.40;;;;;;5013495;28;20026;-76
2022/05/13 03:59:19;;;;;;;10.23;3.33;;;17.50;97.30;;;;;;5013274;28;20026;-76
2022/05/13 04:01:45;;;;;;;15.18;2.67;;;17.50;97.50;;;;;;5013570;28;20435;-76
2022/05/13 04:04:11;;;;;;;8.02;3.13;;;17.50;97.50;;;;;;5011798;28;20105;-76
2022/05/13 04:09:46;;;;;;;10.93;2.72;;;17.40;97.40;;;;;;5013608;28;20040;-77
2022/05/13 04:17:41;;;;;;;8.18;2.70;;;17.60;97.20;;;;;;5013625;28;20525;-77
2022/05/13 04:20:07;;;;;;;7.17;2.53;;;17.60;97.30;;;;;;5013702;28;20509;-76
2022/05/13 04:22:33;;;;;;;8.25;2.30;;;17.50;97.30;;;;;;5013586;28;20509;-77
2022/05/13 04:25:01;;;;;;;14.57;3.53;;;17.60;97.30;;;;;;5013432;28;20431;-77
2022/05/13 04:27:27;;;;;;;9.82;2.30;;;17.60;96.90;;;;;;5012069;28;20184;-75
2022/05/13 04:29:53;;;;;;;8.27;2.70;;;17.60;96.90;;;;;;5013926;28;20534;-77
2022/05/13 04:32:19;;;;;;;10.80;3.10;;;17.60;97.00;;;;;;5014057;28;20378;-78
2022/05/13 04:34:45;;;;;;;13.10;2.90;;;17.60;96.90;;;;;;5013599;28;20030;-77
2022/05/13 04:37:11;;;;;;;10.67;2.80;;;17.60;97.10;;;;;;5013314;28;20513;-77
2022/05/13 04:39:37;;;;;;;6.30;2.50;;;17.70;96.90;;;;;;5013456;28;20553;-78
2022/05/13 04:44:47;;;;;;;11.25;2.83;;;17.90;96.10;;;;;;5013826;28;20387;-73
2022/05/13 04:49:58;;;;;;;13.25;2.60;;;18.10;95.90;;;;;;5014119;28;20286;-75
2022/05/13 04:52:24;;;;;;;5.83;2.30;;;18.10;95.90;;;;;;5012134;28;20116;-75
2022/05/13 04:54:50;;;;;;;10.43;2.60;;;18.20;95.30;;;;;;5011690;28;20277;-75
2022/05/13 04:57:16;;;;;;;11.30;3.03;;;18.30;95.30;;;;;;5013040;28;20022;-70
2022/05/13 04:59:44;;;;;;;10.02;2.90;;;18.30;95.30;;;;;;5013353;28;20040;-76
2022/05/13 05:02:10;;;;;;;10.38;2.88;;;18.40;95.10;;;;;;5013093;28;20454;-79
2022/05/13 05:04:36;;;;;;;8.52;2.72;;;18.40;95.20;;;;;;5013002;28;20096;-80
2022/05/13 05:07:03;;;;;;;15.35;3.03;;;18.50;95.20;;;;;;5012935;28;20140;-80
2022/05/13 05:09:29;;;;;;;11.25;3.40;;;18.80;95.10;;;;;;5012957;28;20025;-81
2022/05/13 05:11:55;;;;;;;10.73;2.75;;;18.80;95.20;;;;;;5013451;28;20088;-80
2022/05/13 05:14:21;;;;;;;10.80;3.10;;;19.00;95.30;;;;;;5013061;28;20083;-80
2022/05/13 05:16:47;;;;;;;9.63;2.70;;;19.90;94.40;;;;;;5013397;28;20268;-80
2022/05/13 05:19:13;;;;;;;6.28;2.50;;;20.90;93.40;;;;;;5013164;28;20018;-82
2022/05/13 05:21:39;;;;;;;20.98;2.72;;;22.10;92.00;;;;;;5014153;28;20034;-82
2022/05/13 05:24:05;;;;;;;11.65;3.22;;;22.90;90.90;;;;;;5013973;28;20018;-81
2022/05/13 05:26:31;;;;;;;13.18;2.95;;;23.60;89.70;;;;;;5013956;28;20033;-82
2022/05/13 05:28:57;;;;;;;12.43;3.30;;;24.00;88.90;;;;;;5013108;28;20022;-82
2022/05/13 05:31:23;;;;;;;10.18;2.60;;;24.70;87.20;;;;;;5013111;28;20025;-75
2022/05/13 05:33:49;;;;;;;14.55;3.30;;;24.80;85.70;;;;;;5012399;28;20418;-79
2022/05/13 05:36:15;;;;;;;16.50;3.42;;;25.30;85.10;;;;;;5012860;28;20100;-79
2022/05/13 05:38:41;;;;;;;7.00;2.60;;;25.40;83.80;;;;;;5013307;28;20034;-78
2022/05/13 05:41:18;;;;;;;11.73;2.67;;;25.70;83.10;;;;;;5012431;28;20479;-78
2022/05/13 05:43:44;;;;;;;14.85;3.05;;;26.50;81.80;;;;;;5011226;28;20055;-79
2022/05/13 05:46:10;;;;;;;11.57;3.10;;;27.50;79.90;;;;;;5012424;28;20036;-80
2022/05/13 05:48:45;;;;;;;16.55;2.95;;;28.40;77.60;;;;;;5012201;28;20155;-79
2022/05/13 05:51:11;;;;;;;17.67;3.03;;;28.60;76.40;;;;;;5012173;28;20038;-80
2022/05/13 05:59:12;;;;;;;11.50;2.30;;;29.20;74.10;;;;;;5014915;28;20094;-78
2022/05/13 06:01:38;;;;;;;10.35;2.88;;;29.10;75.20;;;;;;5013272;28;20034;-77
2022/05/13 06:04:05;;;;;;;11.27;2.58;;;30.30;73.30;;;;;;5013075;28;20111;-78
2022/05/13 06:06:31;;;;;;;11.90;2.60;;;30.20;71.40;;;;;;5015179;28;20446;-77
2022/05/13 06:08:58;;;;;;;10.15;2.70;;;29.90;71.60;;;;;;5013022;28;20128;-77
2022/05/13 06:11:25;;;;;;;9.60;2.50;;;30.20;71.10;;;;;;5014730;28;20026;-76
2022/05/13 06:13:52;;;;;;;;;;;31.70;70.20;;;;;;5014940;28;20128;-78
2022/05/13 06:16:19;;;;;;;10.85;3.25;;;33.00;68.30;;;;;;5014906;28;20307;-78
2022/05/13 06:18:45;;;;;;;16.73;3.00;;;35.00;66.50;;;;;;5015748;28;20073;-80
2022/05/13 06:21:11;;;;;;;8.70;2.63;;;36.10;62.70;;;;;;5015081;28;20451;-78
2022/05/13 06:23:46;;;;;;;11.65;2.95;;;37.20;59.60;;;;;;5015029;28;20109;-78
2022/05/13 06:26:12;;;;;;;13.73;2.53;;;38.50;57.70;;;;;;5013812;28;20105;-77
2022/05/13 06:28:39;;;;;;;13.32;2.75;;;39.40;55.40;;;;;;5015260;28;20087;-78
2022/05/13 06:31:05;;;;;;;16.48;3.72;;;40.10;54.20;;;;;;5013952;28;20108;-78
2022/05/13 06:33:31;;;;;;;10.40;2.60;;;40.80;54.30;;;;;;5015226;28;20107;-78
2022/05/13 06:35:57;;;;;;;10.88;2.60;;;41.20;53.60;;;;;;5015244;28;20478;-79
2022/05/13 06:38:25;;;;;;;8.73;2.78;;;40.70;53.40;;;;;;5015404;28;20026;-78
2022/05/13 06:40:52;;;;;;;13.02;2.80;;;40.60;53.90;;;;;;5014449;28;20041;-78
2022/05/13 06:43:19;;;;;;;10.23;2.33;;;40.30;53.40;;;;;;5013167;28;20450;-79
2022/05/13 06:45:45;;;;;;;9.82;2.60;;;40.70;52.70;;;;;;5014374;28;20065;-80
2022/05/13 06:48:11;;;;;;;13.75;2.60;;;41.10;52.50;;;;;;5013090;28;20034;-78
2022/05/13 06:50:39;;;;;;;15.07;2.50;;;41.20;51.40;;;;;;5014419;28;20101;-78
2022/05/13 06:53:05;;;;;;;10.30;2.53;;;41.50;51.30;;;;;;5022976;28;20121;-79
2022/05/13 06:55:31;;;;;;;13.63;2.58;;;41.40;51.10;;;;;;5025134;28;20100;-79
2022/05/13 06:57:58;;;;;;;11.60;2.97;;;41.60;50.20;;;;;;5016552;28;20025;-79
2022/05/13 07:00:24;;;;;;;13.60;2.60;;;41.50;49.80;;;;;;5034373;28;20041;-79
2022/05/13 07:02:50;;;;;;;14.27;2.42;;;41.30;50.00;;;;;;5025065;28;20026;-78
2022/05/13 07:05:26;;;;;;;13.68;2.67;;;41.20;48.80;;;;;;5034519;28;20125;-79
2022/05/13 07:07:52;;;;;;;14.70;2.83;;;40.70;49.10;;;;;;5034596;28;20457;-78
2022/05/13 07:10:18;;;;;;;18.85;2.88;;;39.40;49.90;;;;;;5033545;28;20068;-79
2022/05/13 07:12:47;;;;;;;17.40;3.20;;;39.30;51.50;;;;;;5032683;28;20029;-78
2022/05/13 07:15:45;;;;;;;14.57;3.20;;;39.30;52.70;;;;;;5033870;28;20021;-79
2022/05/13 07:18:11;;;;;;;16.02;3.63;;;39.00;52.20;;;;;;5034110;28;20033;-79
2022/05/13 07:20:37;;;;;;;22.17;3.92;;;38.50;53.00;;;;;;5032451;28;20112;-78
2022/05/13 07:23:04;;;;;;;19.30;4.10;;;37.80;53.70;;;;;;5034121;28;20041;-79
2022/05/13 07:25:45;;;;;;;10.88;3.40;;;36.90;54.80;;;;;;5032593;28;20021;-80
2022/05/13 07:28:11;;;;;;;15.48;3.72;;;35.80;54.70;;;;;;5033631;28;20033;-78
2022/05/13 07:30:37;;;;;;;16.60;3.65;;;34.70;56.70;;;;;;5033577;28;20070;-77
2022/05/13 07:33:04;;;;;;;17.52;4.22;;;33.80;56.80;;;;;;5032646;28;20029;-78
2022/05/13 07:35:30;;;;;;;14.63;3.70;;;32.70;59.10;;;;;;5034132;28;20032;-78
2022/05/13 07:41:18;;;;;;;15.82;4.45;;;31.70;62.00;;;;;;5033856;28;20092;-80
2022/05/13 07:43:46;;;;;;;17.35;4.40;;;31.10;63.40;;;;;;5032418;28;20036;-77
2022/05/13 07:46:13;;;;;;;17.27;4.50;;;31.30;65.10;;;;;;5033202;28;20045;-78
2022/05/13 07:48:45;;;;;;;16.83;3.92;;;31.30;64.80;;;;;;5032969;28;20021;-78
2022/05/13 07:51:12;;;;;;;22.27;4.38;;;31.40;64.40;;;;;;5032669;28;20037;-76
2022/05/13 07:53:38;;;;;;;;;;;31.50;64.20;;;;;;5033211;28;20544;-79
2022/05/13 07:56:05;;;;;;;14.88;3.28;;;31.60;64.50;;;;;;5032540;28;19927;-80
2022/05/13 07:58:31;;;;;;;15.18;3.83;;;31.70;65.00;;;;;;5032961;28;20082;-79
2022/05/13 08:00:58;;;;;;;;;;;31.70;64.30;;;;;;5033091;28;20022;-80
2022/05/13 08:03:26;;;;;;;13.65;3.10;;;31.20;65.70;;;;;;5031112;28;19909;-77
2022/05/13 08:05:57;;;;;;;12.45;3.13;;;30.90;69.50;;;;;;5030622;28;20137;-79
2022/05/13 08:08:30;;;;;;;21.45;3.75;;;30.70;70.50;;;;;;5032155;28;20108;-79
2022/05/13 08:11:17;;;;;;;19.15;3.45;;;30.70;69.90;;;;;;5032187;28;20025;-79
2022/05/13 08:13:43;;;;;;;11.02;3.00;;;30.80;69.40;;;;;;5031609;28;20030;-78
2022/05/13 08:16:13;;;;;;;12.27;3.00;;;30.70;70.20;;;;;;5032418;28;20111;-78
2022/05/13 08:18:41;;;;;;;14.02;3.40;;;30.70;70.40;;;;;;5033107;28;20029;-78
2022/05/13 08:21:08;;;;;;;13.73;3.33;;;30.40;70.70;;;;;;5032740;28;20029;-79
2022/05/13 08:23:34;;;;;;;12.63;3.60;;;30.30;70.90;;;;;;5032836;28;20124;-77
2022/05/13 08:26:01;;;;;;;14.00;3.20;;;30.60;70.70;;;;;;5031966;28;20033;-78
2022/05/13 08:28:28;;;;;;;19.02;3.63;;;30.60;70.90;;;;;;5031598;28;20465;-78
2022/05/13 08:30:54;;;;;;;12.70;3.33;;;30.60;71.70;;;;;;5031049;28;20044;-79
2022/05/13 08:33:20;;;;;;;;;;;30.50;71.70;;;;;;5032904;28;20017;-77
2022/05/13 08:35:49;;;;;;;13.00;3.20;;;30.60;72.40;;;;;;5032648;28;19905;-78
2022/05/13 08:38:17;;;;;;;10.93;3.45;;;30.70;73.00;;;;;;5030999;28;20053;-77
2022/05/13 08:40:49;;;;;;;13.85;3.20;;;30.80;73.40;;;;;;5031969;28;20394;-75
2022/05/13 08:43:45;;;;;;;11.60;3.00;;;30.00;74.20;;;;;;5032330;28;20027;-77
2022/05/13 08:46:56;;;;;;;10.40;3.13;;;30.10;75.70;;;;;;5031064;28;20037;-77
2022/05/13 08:49:30;;;;;;;9.48;2.97;;;29.70;74.50;;;;;;4971578;28;20033;-78
2022/05/13 08:55:15;;;;;;;12.98;3.08;;;28.90;76.50;;;;;;4971377;28;20050;-77
2022/05/13 08:57:45;;;;;;;10.55;3.10;;;29.10;76.70;;;;;;4971841;28;20117;-77
2022/05/13 09:00:26;;;;;;;14.13;3.78;;;29.10;75.80;;;;;;4970036;28;20447;-78
2022/05/13 09:03:21;;;;;;;14.98;3.25;;;29.20;76.00;;;;;;4971023;28;20031;-77
2022/05/13 09:06:00;;;;;;;11.63;3.83;;;29.10;76.20;;;;;;4958044;28;20498;-78
2022/05/13 09:08:26;;;;;;;13.18;3.30;;;29.10;75.60;;;;;;4952658;28;20122;-78
2022/05/13 09:11:23;;;;;;;11.43;3.28;;;29.10;76.40;;;;;;4952464;29;20139;-78
2022/05/13 09:14:26;;;;;;;15.30;3.42;;;29.20;76.00;;;;;;4951682;29;20404;-78
2022/05/13 09:17:06;;;;;;;12.38;3.15;;;29.20;77.60;;;;;;4952378;28;20061;-77
2022/05/13 09:19:41;;;;;;;11.13;3.40;;;28.80;79.10;;;;;;4971530;28;20150;-78
2022/05/13 09:22:11;;;;;;;13.40;2.90;;;28.60;79.70;;;;;;4971211;28;20045;-78
2022/05/13 09:24:37;;;;;;;9.50;2.70;;;28.50;77.00;;;;;;5031091;28;20030;-78
2022/05/13 09:27:04;;;;;;;10.70;3.17;;;28.10;76.50;;;;;;5031664;28;20370;-78
2022/05/13 09:29:46;;;;;;;12.93;3.45;;;27.80;77.90;;;;;;5027776;28;20103;-78
2022/05/13 09:32:29;;;;;;;13.52;3.30;;;27.60;79.10;;;;;;5012593;28;20045;-78
2022/05/13 09:35:44;;;;;;;11.95;2.80;;;27.60;76.10;;;;;;5014970;28;20022;-78
2022/05/13 09:38:16;;;;;;;;;;;27.40;75.70;;;;;;4970561;28;20518;-78
2022/05/13 09:40:55;;;;;;;10.27;3.17;;;27.30;73.90;;;;;;4970533;28;20004;-77
2022/05/13 09:44:10;;;;;;;12.40;3.13;;;27.30;73.00;;;;;;4971805;28;20111;-76
2022/05/13 09:46:47;;;;;;;9.30;2.95;;;27.40;71.30;;;;;;4977988;28;20073;-78
2022/05/13 09:49:48;;;;;;;16.13;3.00;;;27.60;73.20;;;;;;4990497;28;20038;-77
2022/05/13 09:52:18;;;;;;;13.93;3.30;;;27.80;69.90;;;;;;4990125;28;20560;-78
2022/05/13 09:54:47;;;;;;;14.98;2.92;;;27.70;73.40;;;;;;4990402;28;20045;-78
2022/05/13 09:57:38;;;;;;;10.40;2.80;;;27.80;73.70;;;;;;4989265;28;20026;-78
2022/05/13 10:00:19;;;;;;;11.57;3.13;;;27.70;74.10;;;;;;4988939;28;20042;-78
2022/05/13 10:02:48;;;;;;;8.88;2.92;;;27.60;76.50;;;;;;4989170;28;20041;-77
2022/05/13 10:05:21;;;;;;;10.60;2.85;;;27.30;78.90;;;;;;4976438;28;20039;-78
2022/05/13 10:07:54;;;;;;;9.38;3.00;;;27.20;77.70;;;;;;4970192;28;20521;-79
2022/05/13 10:15:58;;;;;;;9.93;3.00;;;27.10;74.70;;;;;;5011234;28;20041;-78
2022/05/13 10:18:31;;;;;;;14.80;3.20;;;26.90;77.30;;;;;;5010565;28;20022;-78
2022/05/13 10:21:45;;;;;;;10.85;2.75;;;26.80;76.60;;;;;;5010763;28;20113;-79
2022/05/13 10:24:44;;;;;;;10.80;3.08;;;26.70;77.00;;;;;;5007985;28;20034;-79
2022/05/13 10:27:20;;;;;;;12.60;2.78;;;26.50;78.50;;;;;;5011559;28;20030;-79
2022/05/13 10:29:48;;;;;;;11.73;2.97;;;26.60;77.80;;;;;;5011730;28;20459;-78
2022/05/13 10:32:34;;;;;;;6.20;2.35;;;26.60;79.20;;;;;;5011763;28;20049;-80
2022/05/13 10:35:06;;;;;;;7.43;2.72;;;26.70;79.60;;;;;;5009961;28;20462;-76
2022/05/13 10:37:59;;;;;;;7.90;2.67;;;26.60;80.90;;;;;;5013956;28;20130;-79
2022/05/13 10:40:30;;;;;;;13.65;3.28;;;26.60;83.00;;;;;;5013487;28;20041;-78
2022/05/13 10:43:25;;;;;;;12.02;2.70;;;26.70;81.60;;;;;;5014915;28;20442;-79
2022/05/13 10:45:52;;;;;;;6.55;2.67;;;26.60;82.10;;;;;;5014501;28;20193;-78
2022/05/13 10:48:52;;;;;;;8.93;2.80;;;26.40;83.40;;;;;;5013618;28;20072;-78
2022/05/13 10:51:53;;;;;;;8.73;2.83;;;26.40;82.80;;;;;;5012334;28;20121;-79
2022/05/13 10:54:36;;;;;;;11.65;2.97;;;26.10;83.40;;;;;;5013940;28;20033;-79
2022/05/13 10:57:27;;;;;;;15.38;3.50;;;26.20;82.90;;;;;;5013585;28;20026;-79
2022/05/13 11:00:07;;;;;;;9.82;3.40;;;26.20;81.50;;;;;;5013538;28;20474;-78
2022/05/13 11:02:55;;;;;;;16.08;2.75;;;26.50;81.20;;;;;;5012475;28;20034;-78
2022/05/13 11:05:37;;;;;;;9.35;2.63;;;26.70;81.30;;;;;;5012583;28;20107;-78
2022/05/13 11:08:38;;;;;;;11.80;3.13;;;26.60;82.80;;;;;;5013174;28;20053;-78
2022/05/13 11:11:45;;;;;;;12.68;3.08;;;26.10;84.60;;;;;;5013280;28;20462;-78
2022/05/13 11:14:27;;;;;;;11.00;2.70;;;26.10;82.00;;;;;;5012442;28;20204;-76
2022/05/13 11:17:12;;;;;;;10.35;2.60;;;26.20;75.90;;;;;;5012521;28;20022;-76
2022/05/13 11:20:02;;;;;;;7.90;2.58;;;26.40;78.20;;;;;;5012872;28;20034;-76
2022/05/13 11:22:37;;;;;;;10.75;3.45;;;26.30;80.00;;;;;;5014625;28;20411;-77
2022/05/13 11:28:32;;;;;;;;;;;26.40;77.30;;;;;;5013970;28;20374;-77
2022/05/13 11:31:10;;;;;;;15.75;2.78;;;26.40;77.30;;;;;;5013719;28;20011;-78
2022/05/13 11:33:48;;;;;;;12.43;2.83;;;26.30;74.50;;;;;;5013705;28;20026;-76
2022/05/13 11:36:21;;;;;;;14.65;2.75;;;26.20;72.80;;;;;;5011683;28;20038;-77
2022/05/13 11:38:58;;;;;;;10.02;2.70;;;26.30;72.80;;;;;;5013654;28;20033;-77
2022/05/13 11:41:24;;;;;;;12.30;3.08;;;26.40;78.00;;;;;;5013338;28;20034;-78
2022/05/13 11:44:02;;;;;;;12.73;3.20;;;26.40;80.60;;;;;;5013393;28;20026;-76
2022/05/13 11:46:46;;;;;;;11.88;3.83;;;26.40;80.30;;;;;;5013395;28;20030;-77
2022/05/13 11:49:27;;;;;;;12.50;3.58;;;26.40;83.60;;;;;;5018030;28;20033;-77
2022/05/13 11:51:56;;;;;;;10.55;3.30;;;26.20;86.30;;;;;;5030496;28;20085;-78
2022/05/13 11:54:29;;;;;;;16.13;3.58;;;26.30;87.70;;;;;;5033432;28;20036;-77
2022/05/13 11:57:17;;;;;;;14.00;3.10;;;26.10;86.70;;;;;;5033480;28;20033;-79
2022/05/13 12:00:20;;;;;;;14.38;3.90;;;25.80;86.70;;;;;;5032642;28;20087;-76
2022/05/13 12:02:50;;;;;;;9.15;2.78;;;25.80;89.10;;;;;;5030549;28;20489;-76
2022/05/13 12:05:19;;;;;;;6.95;3.17;;;25.90;80.80;;;;;;5022997;28;20030;-77
2022/05/13 12:08:03;;;;;;;12.68;3.17;;;25.30;86.20;;;;;;5013533;28;20076;-78
2022/05/13 12:10:56;;;;;;;9.60;3.50;;;25.20;85.70;;;;;;5014186;28;20058;-78
2022/05/13 12:13:38;;;;;;;9.32;3.20;;;25.40;83.90;;;;;;5014099;28;20143;-77
2022/05/13 12:16:33;;;;;;;7.85;2.92;;;25.60;85.20;;;;;;4994166;28;20058;-78
2022/05/13 12:19:31;;;;;;;12.32;2.85;;;25.90;81.70;;;;;;4995086;28;20026;-78
2022/05/13 12:22:08;;;;;;;12.60;3.35;;;26.10;80.80;;;;;;4995091;28;20035;-78
2022/05/13 12:25:01;;;;;;;8.50;2.95;;;26.00;83.10;;;;;;4994529;28;20027;-77
2022/05/13 12:27:35;;;;;;;13.23;3.60;;;25.80;86.20;;;;;;4994400;28;20035;-77
2022/05/13 12:30:29;;;;;;;7.60;3.05;;;25.70;87.50;;;;;;4993245;28;20497;-78
2022/05/13 12:32:57;;;;;;;11.13;3.33;;;25.90;88.40;;;;;;4995029;28;20018;-77
2022/05/13 12:38:26;;;;;;;8.63;3.25;;;26.30;80.50;;;;;;4994371;28;20407;-77
2022/05/13 12:41:15;;;;;;;10.43;3.35;;;26.30;81.20;;;;;;4994156;28;20512;-78
2022/05/13 12:44:10;;;;;;;9.63;3.08;;;26.50;81.40;;;;;;4978178;28;20034;-78
2022/05/13 12:46:52;;;;;;;9.20;3.08;;;26.40;84.80;;;;;;4991764;28;20034;-76
2022/05/13 12:49:21;;;;;;;6.65;3.55;;;26.50;86.60;;;;;;4994231;28;20023;-78
2022/05/13 12:52:00;;;;;;;7.80;3.30;;;26.60;88.90;;;;;;4994502;28;20026;-78
2022/05/13 12:54:31;;;;;;;8.57;3.88;;;26.60;90.00;;;;;;4993992;28;20026;-78
2022/05/13 12:57:18;;;;;;;8.85;3.70;;;26.40;90.10;;;;;;4994113;28;20030;-77
2022/05/13 12:59:49;;;;;;;7.70;3.92;;;25.70;91.70;;;;;;4991308;28;20038;-77
2022/05/13 13:02:16;;;;;;;11.88;4.10;;;25.60;92.20;;;;;;4993618;28;20030;-77
2022/05/13 13:04:57;;;;;;;8.05;3.90;;;25.60;92.30;;;;;;4993515;28;20070;-78
2022/05/13 13:07:26;;;;;;;12.63;3.90;;;25.60;92.40;;;;;;4993427;28;20027;-76
2022/05/13 13:09:53;;;;;;;8.73;4.00;;;25.70;92.10;;;;;;4997046;28;20029;-76
2022/05/13 13:12:32;;;;;;;;;;;25.40;92.20;;;;;;5026586;28;20028;-77
2022/05/13 13:15:21;;;;;;;10.50;4.22;;;25.30;93.00;;;;;;5032877;28;20366;-79
2022/05/13 13:17:56;;;;;;;10.35;4.55;;;25.20;93.30;;;;;;5026486;28;20038;-78
2022/05/13 13:20:25;;;;;;;11.32;4.47;;;25.10;94.10;;;;;;5011897;28;20084;-78
2022/05/13 13:23:04;;;;;;;9.70;4.68;;;25.10;93.50;;;;;;5013756;28;20355;-77
2022/05/13 13:25:49;;;;;;;8.88;4.25;;;24.90;93.50;;;;;;5011785;28;20026;-76
2022/05/13 13:28:27;;;;;;;9.37;4.33;;;25.00;93.90;;;;;;5013237;28;20104;-78
2022/05/13 13:30:57;;;;;;;10.65;4.32;;;25.00;93.10;;;;;;5011613;28;20268;-78
2022/05/13 13:33:28;;;;;;;11.75;4.30;;;25.20;93.40;;;;;;5013110;28;20026;-78
2022/05/13 13:36:11;;;;;;;11.48;4.00;;;25.30;93.40;;;;;;5017948;28;20048;-77
2022/05/13 13:38:39;;;;;;;9.93;4.40;;;25.60;93.00;;;;;;5032907;28;20115;-78
2022/05/13 13:41:06;;;;;;;7.43;3.85;;;25.90;92.60;;;;;;5032889;28;20029;-78
2022/05/13 13:43:34;;;;;;;11.75;4.00;;;25.70;91.80;;;;;;5031005;28;20392;-76
2022/05/13 13:46:15;;;;;;;12.35;4.35;;;25.90;91.80;;;;;;5027765;28;20025;-76
2022/05/13 13:48:45;;;;;;;8.15;3.72;;;26.00;92.00;;;;;;5033008;28;20024;-77
2022/05/13 13:51:24;;;;;;;11.98;3.85;;;25.90;92.10;;;;;;5030977;28;20115;-77
2022/05/13 13:54:06;;;;;;;9.10;3.97;;;25.90;92.10;;;;;;5032607;28;20056;-78
2022/05/13 13:56:36;;;;;;;7.35;3.35;;;26.00;92.10;;;;;;5031379;28;20086;-78